Time;durP1;ratioP1;P1;durP2;ratioP2;P2;SDS_P1;SDS_P2;PMS_P1;PMS_P2;Temp;Humidity;BMP_temperature;BMP_pressure;BME280_temperature;BME280_humidity;BME280_pressure;Samples;Min_cycle;Max_cycle;Signal;HPM_P1;HPM_P2
2023/04/09 00:00:19;;;;;;;34.30;31.23;;;7.80;99.90;;;;;;5083229;28;20924;-68
2023/04/09 00:02:46;;;;;;;35.95;32.70;;;7.80;99.90;;;;;;5084440;28;20439;-68
2023/04/09 00:05:13;;;;;;;34.50;31.40;;;7.80;99.90;;;;;;5081381;28;20430;-68
2023/04/09 00:07:39;;;;;;;33.63;30.73;;;7.80;99.90;;;;;;5087492;22;20439;-69
2023/04/09 00:10:07;;;;;;;34.42;31.33;;;7.80;99.90;;;;;;5062827;28;20429;-68
2023/04/09 00:12:34;;;;;;;33.42;30.35;;;7.80;99.90;;;;;;5072727;28;20421;-68
2023/04/09 00:15:02;;;;;;;34.63;31.52;;;7.80;99.90;;;;;;5061639;28;20996;-68
2023/04/09 00:17:28;;;;;;;33.83;30.83;;;7.80;99.90;;;;;;5062750;28;21005;-68
2023/04/09 00:19:55;;;;;;;33.80;30.90;;;7.80;99.90;;;;;;5067675;28;20431;-68
2023/04/09 00:22:22;;;;;;;32.67;29.77;;;7.80;99.90;;;;;;5059923;28;20542;-68
2023/04/09 00:24:48;;;;;;;33.90;30.80;;;7.80;99.90;;;;;;5061969;28;20919;-67
2023/04/09 00:27:15;;;;;;;32.05;29.35;;;7.80;99.90;;;;;;5068215;28;20426;-68
2023/04/09 00:29:42;;;;;;;30.25;27.70;;;7.80;99.90;;;;;;5062502;28;20889;-67
2023/04/09 00:32:10;;;;;;;31.92;29.13;;;7.80;99.90;;;;;;5065253;28;20776;-67
2023/04/09 00:34:37;;;;;;;31.35;28.65;;;7.70;99.90;;;;;;5063417;28;20849;-67
2023/04/09 00:37:04;;;;;;;29.80;27.20;;;7.80;99.90;;;;;;5063183;28;20427;-67
2023/04/09 00:39:31;;;;;;;31.15;28.45;;;7.80;99.90;;;;;;5064878;28;20959;-68
2023/04/09 00:41:58;;;;;;;29.77;27.17;;;7.80;99.90;;;;;;5062463;28;20427;-68
2023/04/09 00:44:25;;;;;;;29.35;26.83;;;7.80;99.90;;;;;;5061113;28;20431;-67
2023/04/09 00:46:52;;;;;;;30.08;27.48;;;7.80;99.90;;;;;;5061179;28;20458;-68
2023/04/09 00:49:23;;;;;;;28.38;25.88;;;7.80;99.90;;;;;;5064549;28;20430;-69
2023/04/09 00:51:50;;;;;;;28.65;26.23;;;7.80;99.90;;;;;;5054339;28;20480;-69
2023/04/09 00:54:17;;;;;;;29.50;26.90;;;7.80;99.90;;;;;;5060283;28;20434;-70
2023/04/09 00:56:44;;;;;;;28.15;25.75;;;7.80;99.90;;;;;;5064445;28;20443;-68
2023/04/09 00:59:11;;;;;;;27.42;25.08;;;7.80;99.90;;;;;;5064034;28;20431;-68
2023/04/09 01:01:37;;;;;;;27.63;25.25;;;7.80;99.90;;;;;;5065515;28;20433;-68
2023/04/09 01:04:05;;;;;;;28.30;25.83;;;7.80;99.90;;;;;;5065884;28;20435;-68
2023/04/09 01:06:41;;;;;;;28.90;26.30;;;7.80;99.90;;;;;;5068904;28;20539;-69
2023/04/09 01:09:17;;;;;;;28.70;26.27;;;7.80;99.90;;;;;;5065821;28;20524;-67
2023/04/09 01:12:00;;;;;;;27.88;25.48;;;7.80;99.90;;;;;;5063980;28;20434;-68
2023/04/09 01:14:32;;;;;;;27.48;25.17;;;7.70;99.90;;;;;;5055734;28;20521;-68
2023/04/09 01:17:04;;;;;;;27.95;25.42;;;7.70;99.90;;;;;;5064899;28;20445;-69
2023/04/09 01:19:42;;;;;;;29.50;27.00;;;7.70;99.90;;;;;;5068983;28;20548;-69
2023/04/09 01:22:30;;;;;;;29.40;26.90;;;7.60;99.90;;;;;;5065820;28;20460;-67
2023/04/09 01:25:04;;;;;;;27.65;25.15;;;7.60;99.90;;;;;;5059558;28;20512;-68
2023/04/09 01:27:39;;;;;;;27.85;25.45;;;7.50;99.90;;;;;;5068203;28;20932;-68
2023/04/09 01:30:09;;;;;;;28.30;25.70;;;7.50;99.90;;;;;;5063053;28;20468;-68
2023/04/09 01:32:38;;;;;;;28.52;26.02;;;7.50;99.90;;;;;;5064415;28;20421;-68
2023/04/09 01:35:06;;;;;;;27.40;25.00;;;7.50;99.90;;;;;;5066178;28;20442;-69
2023/04/09 01:37:34;;;;;;;29.05;26.35;;;7.40;99.90;;;;;;5066707;28;20784;-68
2023/04/09 01:40:03;;;;;;;28.20;25.70;;;7.40;99.90;;;;;;5060999;28;20417;-68
2023/04/09 01:42:30;;;;;;;28.83;26.23;;;7.40;99.90;;;;;;5065833;28;20846;-70
2023/04/09 01:44:58;;;;;;;27.98;25.48;;;7.40;99.90;;;;;;5067503;28;20425;-68
2023/04/09 01:47:27;;;;;;;28.38;25.98;;;7.40;99.90;;;;;;5064323;28;20517;-69
2023/04/09 01:49:54;;;;;;;27.25;24.95;;;7.40;99.90;;;;;;5061987;28;20435;-69
2023/04/09 01:52:21;;;;;;;28.65;26.15;;;7.40;99.90;;;;;;5066409;28;20858;-68
2023/04/09 01:54:48;;;;;;;28.45;26.05;;;7.40;99.90;;;;;;5066350;28;20435;-70
2023/04/09 01:57:14;;;;;;;28.10;25.70;;;7.40;99.90;;;;;;5066053;28;20431;-68
2023/04/09 01:59:41;;;;;;;27.67;25.17;;;7.40;99.90;;;;;;5065727;28;20806;-68
2023/04/09 02:02:12;;;;;;;27.85;25.45;;;7.40;99.90;;;;;;5066131;28;20435;-70
2023/04/09 02:04:43;;;;;;;28.17;25.58;;;7.40;99.90;;;;;;5060378;28;20454;-68
2023/04/09 02:07:15;;;;;;;27.50;25.10;;;7.40;99.90;;;;;;5064215;28;20794;-68
2023/04/09 02:09:44;;;;;;;25.95;23.65;;;7.40;99.90;;;;;;5058622;28;20422;-68
2023/04/09 02:12:14;;;;;;;27.17;24.75;;;7.40;99.90;;;;;;5067797;28;20447;-68
2023/04/09 02:14:42;;;;;;;26.42;24.23;;;7.40;99.90;;;;;;5065475;28;20441;-68
2023/04/09 02:17:09;;;;;;;25.75;23.45;;;7.40;99.90;;;;;;5060984;28;20799;-69
2023/04/09 02:19:41;;;;;;;25.33;23.10;;;7.40;99.90;;;;;;5066627;28;20431;-68
2023/04/09 02:22:08;;;;;;;26.20;23.85;;;7.40;99.90;;;;;;5062678;28;20431;-70
2023/04/09 02:24:35;;;;;;;25.85;23.55;;;7.40;99.90;;;;;;5063634;28;20431;-68
2023/04/09 02:27:02;;;;;;;25.20;22.90;;;7.30;99.90;;;;;;5066548;28;20453;-69
2023/04/09 02:29:29;;;;;;;25.30;23.10;;;7.30;99.90;;;;;;5065273;28;20427;-67
2023/04/09 02:31:56;;;;;;;23.80;21.70;;;7.30;99.90;;;;;;5064427;28;20430;-68
2023/04/09 02:34:23;;;;;;;24.90;22.50;;;7.30;99.90;;;;;;5059197;28;20442;-67
2023/04/09 02:36:51;;;;;;;24.50;22.30;;;7.30;99.90;;;;;;5067894;28;20426;-67
2023/04/09 02:39:18;;;;;;;24.60;22.50;;;7.30;99.90;;;;;;5062441;28;20914;-68
2023/04/09 02:41:45;;;;;;;24.73;22.58;;;7.20;99.90;;;;;;5065120;28;20445;-69
2023/04/09 02:44:11;;;;;;;25.40;23.20;;;7.20;99.90;;;;;;5065446;28;20827;-68
2023/04/09 02:46:39;;;;;;;24.08;22.05;;;7.20;99.90;;;;;;5060257;28;20431;-69
2023/04/09 02:49:05;;;;;;;24.80;22.70;;;7.20;99.90;;;;;;5059581;28;20865;-68
2023/04/09 02:51:34;;;;;;;24.20;21.90;;;7.20;99.90;;;;;;5062994;28;20427;-68
2023/04/09 02:54:03;;;;;;;23.80;21.80;;;7.20;99.90;;;;;;5062826;28;20893;-67
2023/04/09 02:56:30;;;;;;;24.92;22.73;;;7.20;99.90;;;;;;5062759;28;20443;-68
2023/04/09 02:58:56;;;;;;;24.40;22.20;;;7.20;99.90;;;;;;5060438;28;20461;-67
2023/04/09 03:01:23;;;;;;;23.60;21.40;;;7.20;99.90;;;;;;5055878;28;20438;-69
2023/04/09 03:03:50;;;;;;;23.60;21.50;;;7.20;99.90;;;;;;5060498;28;20437;-68
2023/04/09 03:06:17;;;;;;;23.30;21.30;;;7.20;99.90;;;;;;5067634;28;20411;-70
2023/04/09 03:08:44;;;;;;;22.83;20.83;;;7.20;99.90;;;;;;5054895;28;20432;-68
2023/04/09 03:11:12;;;;;;;22.70;20.70;;;7.10;99.90;;;;;;5067116;28;20427;-68
2023/04/09 03:13:39;;;;;;;22.80;20.80;;;7.10;99.90;;;;;;5058657;28;20436;-69
2023/04/09 03:16:06;;;;;;;21.95;20.05;;;7.10;99.90;;;;;;5069425;28;20430;-68
2023/04/09 03:18:33;;;;;;;22.20;20.20;;;7.10;99.90;;;;;;5070361;28;20449;-68
2023/04/09 03:20:59;;;;;;;21.60;19.70;;;7.10;99.90;;;;;;5064601;28;20435;-69
2023/04/09 03:23:26;;;;;;;21.40;19.50;;;7.00;99.90;;;;;;5063902;28;20453;-68
2023/04/09 03:26:01;;;;;;;21.60;19.70;;;7.00;99.90;;;;;;5056046;28;20413;-68
2023/04/09 03:28:29;;;;;;;22.40;20.30;;;7.00;99.90;;;;;;5056846;28;20479;-67
2023/04/09 03:30:55;;;;;;;22.00;20.10;;;6.90;99.90;;;;;;5065513;28;20419;-67
2023/04/09 03:33:22;;;;;;;21.87;19.97;;;6.90;99.90;;;;;;5064201;28;20447;-68
2023/04/09 03:35:49;;;;;;;22.02;20.02;;;6.90;99.90;;;;;;5059730;28;20915;-67
2023/04/09 03:38:16;;;;;;;22.75;20.65;;;6.80;99.90;;;;;;5061690;28;20433;-67
2023/04/09 03:40:42;;;;;;;23.63;21.52;;;6.80;99.90;;;;;;5066212;28;20428;-68
2023/04/09 03:43:09;;;;;;;21.90;20.00;;;6.80;99.90;;;;;;5065275;28;20431;-67
2023/04/09 03:45:37;;;;;;;23.27;21.27;;;6.80;99.90;;;;;;5067017;28;20754;-68
2023/04/09 03:48:04;;;;;;;22.38;20.27;;;6.70;99.90;;;;;;5062202;28;20802;-68
2023/04/09 03:50:31;;;;;;;22.70;20.80;;;6.70;99.90;;;;;;5066467;28;20844;-68
2023/04/09 03:52:57;;;;;;;22.85;20.75;;;6.70;99.90;;;;;;5066271;28;20427;-68
2023/04/09 03:55:24;;;;;;;22.92;20.83;;;6.70;99.90;;;;;;5066706;28;20427;-68
2023/04/09 03:57:51;;;;;;;22.88;20.83;;;6.70;99.90;;;;;;5067775;28;20431;-68
2023/04/09 04:00:18;;;;;;;24.05;21.90;;;6.60;99.90;;;;;;5065341;28;20427;-68
2023/04/09 04:02:46;;;;;;;23.58;21.27;;;6.60;99.90;;;;;;5065918;28;20419;-69
2023/04/09 04:05:12;;;;;;;22.38;20.38;;;6.50;99.90;;;;;;5059201;28;20427;-69
2023/04/09 04:07:42;;;;;;;23.75;21.65;;;6.50;99.90;;;;;;5065934;28;20435;-68
2023/04/09 04:10:09;;;;;;;23.48;21.38;;;6.50;99.90;;;;;;5065488;28;20474;-69
2023/04/09 04:12:36;;;;;;;22.87;20.77;;;6.40;99.90;;;;;;5064125;28;20738;-68
2023/04/09 04:15:03;;;;;;;22.77;20.70;;;6.40;99.90;;;;;;5065722;28;20908;-68
2023/04/09 04:17:30;;;;;;;22.60;20.60;;;6.40;99.90;;;;;;5061308;28;20440;-67
2023/04/09 04:19:59;;;;;;;22.75;20.75;;;6.40;99.90;;;;;;5067206;28;20819;-68
2023/04/09 04:22:25;;;;;;;23.40;21.30;;;6.40;99.90;;;;;;5062107;28;20562;-67
2023/04/09 04:24:52;;;;;;;23.13;21.13;;;6.40;99.90;;;;;;5063896;28;20436;-68
2023/04/09 04:27:19;;;;;;;23.95;21.83;;;6.40;99.90;;;;;;5065740;28;20424;-68
2023/04/09 04:29:45;;;;;;;24.03;21.93;;;6.40;99.90;;;;;;5062575;28;20659;-67
2023/04/09 04:32:12;;;;;;;23.63;21.33;;;6.30;99.90;;;;;;5059252;28;20431;-67
2023/04/09 04:34:39;;;;;;;23.95;21.75;;;6.30;99.90;;;;;;5063611;28;20444;-67
2023/04/09 04:37:07;;;;;;;25.10;22.80;;;6.20;99.90;;;;;;5072590;28;20421;-67
2023/04/09 04:39:34;;;;;;;24.13;22.00;;;6.20;99.90;;;;;;5063451;28;20423;-67
2023/04/09 04:42:00;;;;;;;24.75;22.55;;;6.10;99.90;;;;;;5068578;28;20439;-67
2023/04/09 04:44:27;;;;;;;25.13;22.73;;;6.10;99.90;;;;;;5065297;28;20450;-67
2023/04/09 04:46:54;;;;;;;24.87;22.57;;;6.10;99.90;;;;;;5067412;28;20423;-67
2023/04/09 04:49:21;;;;;;;22.35;20.35;;;6.00;99.90;;;;;;5060599;28;20439;-67
2023/04/09 04:51:47;;;;;;;19.30;17.52;;;6.00;99.90;;;;;;5064022;28;20424;-68
2023/04/09 04:54:15;;;;;;;21.63;19.73;;;6.00;99.90;;;;;;5057593;28;21245;-67
2023/04/09 04:56:42;;;;;;;21.85;19.85;;;6.00;99.90;;;;;;5064690;28;20436;-67
2023/04/09 04:59:09;;;;;;;22.48;20.23;;;6.00;99.90;;;;;;5060037;28;20532;-67
2023/04/09 05:01:35;;;;;;;20.77;18.77;;;6.00;99.90;;;;;;5069818;28;20610;-67
2023/04/09 05:04:03;;;;;;;20.23;18.42;;;6.00;99.90;;;;;;5059866;28;20426;-67
2023/04/09 05:06:30;;;;;;;20.97;19.07;;;6.00;99.90;;;;;;5061626;28;20416;-67
2023/04/09 05:08:57;;;;;;;21.30;19.40;;;6.10;99.90;;;;;;5057223;28;20996;-67
2023/04/09 05:11:25;;;;;;;20.08;18.27;;;6.10;99.90;;;;;;5064853;28;20922;-67
2023/04/09 05:13:52;;;;;;;20.90;19.00;;;6.10;99.90;;;;;;5062579;28;20432;-67
2023/04/09 05:16:19;;;;;;;20.35;18.45;;;6.10;99.90;;;;;;5065038;28;20435;-68
2023/04/09 05:18:46;;;;;;;21.55;19.65;;;6.10;99.90;;;;;;5064106;28;20906;-68
2023/04/09 05:21:13;;;;;;;20.00;18.20;;;6.20;99.90;;;;;;5057064;28;20427;-68
2023/04/09 05:23:40;;;;;;;20.70;18.80;;;6.30;99.90;;;;;;5059504;28;20432;-68
2023/04/09 05:26:07;;;;;;;18.15;16.60;;;6.30;99.90;;;;;;5064467;28;20729;-68
2023/04/09 05:28:35;;;;;;;19.38;17.58;;;6.40;99.90;;;;;;5060134;28;20859;-65
2023/04/09 05:31:02;;;;;;;18.90;17.10;;;6.50;99.90;;;;;;5062296;28;20445;-68
2023/04/09 05:33:28;;;;;;;18.85;17.15;;;6.50;99.90;;;;;;5065842;28;20415;-69
2023/04/09 05:35:55;;;;;;;18.85;17.15;;;6.50;99.90;;;;;;5053111;28;20421;-68
2023/04/09 05:38:22;;;;;;;18.23;16.63;;;6.60;99.90;;;;;;5070031;28;20419;-67
2023/04/09 05:40:49;;;;;;;19.50;17.70;;;6.70;99.90;;;;;;5066387;28;20918;-69
2023/04/09 05:43:15;;;;;;;18.88;17.10;;;6.80;99.90;;;;;;5046791;28;20422;-68
2023/04/09 05:45:43;;;;;;;17.52;15.82;;;6.80;99.90;;;;;;5057077;28;20427;-68
2023/04/09 05:48:10;;;;;;;17.85;16.25;;;6.80;99.90;;;;;;5063671;28;20442;-68
2023/04/09 05:50:37;;;;;;;19.15;17.30;;;6.90;99.90;;;;;;5058149;28;20423;-67
2023/04/09 05:53:04;;;;;;;17.90;16.25;;;6.90;99.70;;;;;;5062927;28;20462;-67
2023/04/09 05:55:31;;;;;;;17.48;15.95;;;6.90;99.60;;;;;;5061866;28;20925;-66
2023/04/09 05:57:58;;;;;;;18.67;16.98;;;6.90;99.50;;;;;;5061751;28;20925;-73
2023/04/09 06:00:25;;;;;;;16.83;15.32;;;7.00;99.70;;;;;;5055380;28;20475;-66
2023/04/09 06:02:55;;;;;;;17.10;15.60;;;7.00;98.90;;;;;;5063599;28;21554;-67
2023/04/09 06:05:21;;;;;;;16.60;15.10;;;6.90;98.90;;;;;;5061996;28;20515;-70
2023/04/09 06:07:48;;;;;;;16.40;14.90;;;7.00;99.30;;;;;;5076227;22;20445;-66
2023/04/09 06:10:15;;;;;;;17.23;15.73;;;7.00;99.00;;;;;;5032433;28;20514;-66
2023/04/09 06:12:42;;;;;;;17.08;15.48;;;7.00;99.00;;;;;;5040724;28;20465;-66
2023/04/09 06:15:09;;;;;;;17.13;15.63;;;7.00;99.00;;;;;;5035803;28;20934;-67
2023/04/09 06:17:36;;;;;;;16.95;15.45;;;7.00;99.40;;;;;;5038912;28;20429;-68
2023/04/09 06:20:05;;;;;;;17.30;15.70;;;7.00;99.30;;;;;;5040191;28;20434;-67
2023/04/09 06:22:32;;;;;;;16.90;15.37;;;7.00;99.40;;;;;;5040670;28;20510;-65
2023/04/09 06:24:59;;;;;;;16.48;14.95;;;7.00;99.10;;;;;;5042441;28;20452;-66
2023/04/09 06:27:26;;;;;;;16.00;14.60;;;7.00;99.00;;;;;;5044048;28;20421;-66
2023/04/09 06:29:53;;;;;;;16.20;14.70;;;7.00;98.50;;;;;;5040147;28;20456;-66
2023/04/09 06:32:19;;;;;;;16.17;14.68;;;7.00;97.80;;;;;;5039432;28;20574;-66
2023/04/09 06:34:47;;;;;;;15.63;14.02;;;7.00;98.20;;;;;;5036027;28;20448;-66
2023/04/09 06:37:15;;;;;;;15.57;14.18;;;7.00;98.60;;;;;;5041516;28;20487;-64
2023/04/09 06:39:41;;;;;;;14.50;13.23;;;7.10;98.60;;;;;;5039839;28;20444;-67
2023/04/09 06:42:08;;;;;;;15.15;13.75;;;7.20;98.10;;;;;;5039110;28;20776;-68
2023/04/09 06:44:35;;;;;;;15.30;13.90;;;7.20;97.60;;;;;;5040076;28;21052;-66
2023/04/09 06:47:02;;;;;;;13.70;12.40;;;7.30;97.40;;;;;;5045996;28;20466;-65
2023/04/09 06:49:28;;;;;;;14.13;12.82;;;7.40;96.70;;;;;;5047505;28;20425;-65
2023/04/09 06:51:55;;;;;;;13.55;12.25;;;7.40;96.70;;;;;;5047922;28;20440;-67
2023/04/09 06:54:23;;;;;;;15.80;14.20;;;7.50;96.20;;;;;;5047208;28;20424;-70
2023/04/09 06:56:50;;;;;;;14.50;13.10;;;7.60;96.70;;;;;;5044666;28;20463;-70
2023/04/09 06:59:17;;;;;;;13.60;12.30;;;7.70;95.80;;;;;;5043777;28;20527;-68
2023/04/09 07:01:44;;;;;;;13.80;12.40;;;7.80;95.50;;;;;;5036862;28;20438;-66
2023/04/09 07:04:11;;;;;;;12.80;11.60;;;7.80;94.70;;;;;;5043650;28;20455;-66
2023/04/09 07:06:39;;;;;;;13.25;12.05;;;7.90;94.90;;;;;;5046974;28;20428;-67
2023/04/09 07:09:06;;;;;;;13.45;12.18;;;8.00;94.50;;;;;;5047987;28;20436;-66
2023/04/09 07:11:34;;;;;;;13.13;11.93;;;8.00;94.60;;;;;;5045410;28;20576;-67
2023/04/09 07:14:01;;;;;;;13.32;12.13;;;8.10;94.40;;;;;;5043886;28;20439;-66
2023/04/09 07:16:27;;;;;;;12.73;11.52;;;8.20;94.50;;;;;;5046052;28;20445;-68
2023/04/09 07:18:54;;;;;;;13.07;11.77;;;8.40;94.10;;;;;;5043405;28;20433;-68
2023/04/09 07:21:21;;;;;;;11.55;10.55;;;8.50;93.80;;;;;;5046006;28;20971;-68
2023/04/09 07:23:48;;;;;;;12.15;11.05;;;8.70;92.60;;;;;;5044484;28;20421;-69
2023/04/09 07:26:14;;;;;;;11.80;10.70;;;8.80;91.80;;;;;;5047926;28;20433;-66
2023/04/09 07:28:42;;;;;;;12.70;11.50;;;9.00;91.60;;;;;;5039888;28;20501;-66
2023/04/09 07:31:10;;;;;;;12.07;10.90;;;9.20;92.30;;;;;;5041928;28;20938;-65
2023/04/09 07:33:36;;;;;;;12.00;11.00;;;9.40;91.00;;;;;;5046681;28;20479;-67
2023/04/09 07:36:03;;;;;;;11.18;10.18;;;9.50;88.70;;;;;;5042998;28;20472;-66
2023/04/09 07:38:30;;;;;;;12.00;10.90;;;9.60;89.20;;;;;;5041633;28;20444;-65
2023/04/09 07:40:57;;;;;;;11.70;10.70;;;9.80;88.40;;;;;;5045245;28;20772;-67
2023/04/09 07:43:24;;;;;;;11.85;10.75;;;9.80;87.70;;;;;;5042160;28;20437;-67
2023/04/09 07:45:52;;;;;;;11.00;9.90;;;10.00;87.10;;;;;;5045824;28;20433;-67
2023/04/09 07:48:19;;;;;;;11.40;10.30;;;10.10;86.40;;;;;;5046850;28;20425;-66
2023/04/09 07:50:47;;;;;;;11.07;10.07;;;10.30;85.10;;;;;;5046016;28;20524;-65
2023/04/09 07:53:13;;;;;;;10.70;9.80;;;10.40;83.20;;;;;;5046919;28;20886;-65
2023/04/09 07:55:40;;;;;;;10.18;9.27;;;10.60;82.70;;;;;;5045005;28;20760;-66
2023/04/09 07:58:07;;;;;;;10.48;9.57;;;10.70;79.60;;;;;;5044386;28;20472;-66
2023/04/09 08:00:33;;;;;;;10.35;9.45;;;10.80;77.50;;;;;;5044860;28;20467;-65
2023/04/09 08:03:02;;;;;;;9.63;8.82;;;10.80;78.20;;;;;;5036306;28;20485;-65
2023/04/09 08:05:29;;;;;;;10.02;9.13;;;10.90;78.50;;;;;;5043846;28;20440;-66
2023/04/09 08:07:56;;;;;;;9.55;8.65;;;11.00;78.20;;;;;;5036257;28;20437;-67
2023/04/09 08:10:23;;;;;;;9.70;8.80;;;11.20;78.00;;;;;;5040320;28;20448;-66
2023/04/09 08:12:50;;;;;;;8.73;7.93;;;11.40;76.20;;;;;;5046517;28;20440;-64
2023/04/09 08:15:16;;;;;;;9.75;8.85;;;11.60;75.30;;;;;;5045837;28;20417;-64
2023/04/09 08:17:43;;;;;;;9.10;8.40;;;11.80;74.90;;;;;;5040293;28;20907;-65
2023/04/09 08:20:12;;;;;;;9.13;8.33;;;11.90;73.30;;;;;;5044615;28;20428;-64
2023/04/09 08:22:40;;;;;;;8.70;7.90;;;12.10;69.80;;;;;;5040358;28;20417;-67
2023/04/09 08:25:08;;;;;;;8.73;7.97;;;12.20;68.00;;;;;;5039401;28;20436;-67
2023/04/09 08:27:35;;;;;;;9.30;8.50;;;12.30;67.10;;;;;;5045448;28;20444;-68
2023/04/09 08:30:02;;;;;;;9.00;8.20;;;12.40;66.40;;;;;;5040560;28;20911;-67
2023/04/09 08:32:29;;;;;;;8.82;8.02;;;12.50;67.90;;;;;;5044607;28;20461;-68
2023/04/09 08:34:56;;;;;;;8.00;7.30;;;12.80;67.50;;;;;;5035017;28;20510;-70
2023/04/09 08:37:25;;;;;;;9.02;8.23;;;13.00;66.60;;;;;;5044273;28;20488;-69
2023/04/09 08:39:52;;;;;;;8.55;7.75;;;13.20;66.90;;;;;;5042094;28;20508;-68
2023/04/09 08:42:20;;;;;;;8.90;8.10;;;13.40;63.80;;;;;;5039763;28;20456;-69
2023/04/09 08:44:47;;;;;;;7.97;7.28;;;13.60;63.20;;;;;;5036127;28;20429;-70
2023/04/09 08:47:14;;;;;;;8.40;7.60;;;13.80;60.90;;;;;;5042590;28;20488;-70
2023/04/09 08:49:41;;;;;;;7.90;7.30;;;14.00;59.30;;;;;;5035229;28;20437;-71
2023/04/09 08:52:08;;;;;;;7.90;7.20;;;13.90;57.60;;;;;;5045004;28;20433;-68
2023/04/09 08:54:37;;;;;;;7.47;6.78;;;13.90;57.50;;;;;;5044675;28;20520;-69
2023/04/09 08:57:05;;;;;;;7.30;6.60;;;14.00;55.60;;;;;;5044417;28;20484;-68
2023/04/09 08:59:35;;;;;;;7.70;7.00;;;14.10;55.70;;;;;;5040858;28;20529;-69
2023/04/09 09:02:09;;;;;;;7.40;6.80;;;14.20;54.90;;;;;;5040605;28;20437;-69
2023/04/09 09:04:46;;;;;;;7.33;6.73;;;14.40;54.40;;;;;;5045284;28;20522;-68
2023/04/09 09:07:13;;;;;;;8.20;7.47;;;14.60;55.00;;;;;;5043471;28;20421;-70
2023/04/09 09:09:56;;;;;;;7.13;6.53;;;15.00;52.80;;;;;;5041779;28;20629;-69
2023/04/09 09:12:32;;;;;;;7.18;6.57;;;15.10;52.30;;;;;;5041647;28;20437;-70
2023/04/09 09:14:59;;;;;;;6.97;6.37;;;15.10;50.10;;;;;;5038955;28;20819;-70
2023/04/09 09:17:26;;;;;;;7.30;6.70;;;15.10;49.50;;;;;;5041294;28;20441;-68
2023/04/09 09:19:52;;;;;;;6.88;6.30;;;15.30;48.30;;;;;;5043383;28;20530;-67
2023/04/09 09:22:19;;;;;;;6.30;5.70;;;15.30;48.20;;;;;;5044938;28;20872;-69
2023/04/09 09:24:47;;;;;;;6.28;5.68;;;15.20;49.40;;;;;;5044334;28;20440;-69
2023/04/09 09:27:32;;;;;;;6.00;5.50;;;15.40;48.00;;;;;;5045860;28;20494;-70
2023/04/09 09:29:58;;;;;;;7.00;6.40;;;15.50;47.20;;;;;;5042949;28;20887;-67
2023/04/09 09:32:26;;;;;;;6.10;5.60;;;15.60;48.80;;;;;;5039179;28;20409;-67
2023/04/09 09:34:59;;;;;;;6.10;5.60;;;15.70;45.40;;;;;;5041725;28;20428;-67
2023/04/09 09:37:26;;;;;;;6.30;5.80;;;15.70;44.90;;;;;;5044699;28;20938;-67
2023/04/09 09:39:54;;;;;;;6.90;6.20;;;15.80;45.20;;;;;;5035350;28;20941;-68
2023/04/09 09:42:22;;;;;;;6.57;6.07;;;15.80;44.60;;;;;;5044224;28;20504;-66
2023/04/09 09:44:50;;;;;;;6.78;6.20;;;15.70;45.10;;;;;;5045168;28;20413;-67
2023/04/09 09:47:18;;;;;;;6.80;6.20;;;15.60;45.10;;;;;;5040437;28;20438;-66
2023/04/09 09:49:45;;;;;;;6.47;5.97;;;15.60;45.10;;;;;;5044928;28;20784;-67
2023/04/09 09:52:12;;;;;;;6.70;6.10;;;15.50;46.00;;;;;;5044656;28;20421;-67
2023/04/09 09:54:41;;;;;;;6.23;5.73;;;15.50;46.70;;;;;;5043938;28;20802;-68
2023/04/09 09:57:12;;;;;;;6.78;6.20;;;15.70;46.50;;;;;;5039544;28;20445;-67
2023/04/09 09:59:43;;;;;;;6.30;5.80;;;16.00;45.50;;;;;;5044611;28;20546;-67
2023/04/09 10:02:17;;;;;;;6.10;5.60;;;16.40;43.90;;;;;;5043530;28;20444;-67
2023/04/09 10:04:45;;;;;;;6.07;5.57;;;16.70;43.20;;;;;;5044704;28;20433;-68
2023/04/09 10:07:14;;;;;;;6.20;5.70;;;16.80;42.30;;;;;;5043297;28;20433;-68
2023/04/09 10:09:45;;;;;;;6.85;6.35;;;16.90;42.10;;;;;;5043021;28;20900;-68
2023/04/09 10:12:12;;;;;;;7.13;6.53;;;16.70;41.40;;;;;;5043649;28;20485;-68
2023/04/09 10:14:41;;;;;;;7.00;6.40;;;16.20;44.30;;;;;;5044289;28;20417;-69
2023/04/09 10:17:08;;;;;;;6.97;6.38;;;16.10;43.90;;;;;;5043316;28;20443;-68
2023/04/09 10:19:40;;;;;;;6.60;6.10;;;16.20;44.50;;;;;;5043058;28;20447;-68
2023/04/09 10:22:11;;;;;;;7.30;6.70;;;16.50;44.00;;;;;;5041171;28;20544;-67
2023/04/09 10:24:39;;;;;;;6.90;6.30;;;16.90;43.90;;;;;;5036511;28;20430;-68
2023/04/09 10:27:10;;;;;;;7.00;6.40;;;17.10;41.80;;;;;;5043515;28;20417;-68
2023/04/09 10:29:44;;;;;;;7.47;6.87;;;16.80;41.60;;;;;;5043643;28;20488;-68
2023/04/09 10:32:12;;;;;;;7.10;6.50;;;16.60;41.90;;;;;;5044589;28;20474;-68
2023/04/09 10:34:40;;;;;;;6.63;6.10;;;16.20;43.60;;;;;;5043861;28;20432;-67
2023/04/09 10:37:09;;;;;;;7.22;6.63;;;16.10;43.60;;;;;;5041759;28;20547;-67
2023/04/09 10:39:40;;;;;;;7.07;6.50;;;16.10;43.40;;;;;;5043586;28;20859;-67
2023/04/09 10:42:11;;;;;;;7.70;7.10;;;16.30;42.80;;;;;;5043365;28;20860;-68
2023/04/09 10:44:41;;;;;;;7.90;7.20;;;16.40;42.60;;;;;;5041957;28;20884;-68
2023/04/09 10:47:10;;;;;;;7.97;7.30;;;16.50;42.70;;;;;;5044254;28;20429;-68
2023/04/09 10:49:38;;;;;;;7.30;6.70;;;16.70;43.20;;;;;;5044071;28;20504;-68
2023/04/09 10:52:06;;;;;;;7.10;6.50;;;16.90;41.30;;;;;;5043871;28;20509;-68
2023/04/09 10:54:51;;;;;;;7.47;6.88;;;17.10;41.00;;;;;;5044324;28;20444;-68
2023/04/09 10:57:20;;;;;;;8.57;7.88;;;17.40;40.70;;;;;;5039893;28;20424;-66
2023/04/09 10:59:49;;;;;;;8.50;7.80;;;17.30;41.30;;;;;;5038217;28;20413;-67
2023/04/09 11:02:59;;;;;;;7.35;6.75;;;17.20;41.90;;;;;;5044667;28;20512;-67
2023/04/09 11:05:34;;;;;;;7.63;7.03;;;17.30;42.10;;;;;;5044564;28;20497;-67
2023/04/09 11:08:06;;;;;;;7.32;6.72;;;17.80;41.70;;;;;;5044924;28;21014;-68
2023/04/09 11:10:33;;;;;;;7.60;7.00;;;18.20;39.50;;;;;;5036140;28;20433;-67
2023/04/09 11:13:01;;;;;;;8.02;7.32;;;18.40;40.30;;;;;;5047415;28;20821;-67
2023/04/09 11:15:28;;;;;;;8.10;7.40;;;18.90;39.80;;;;;;5049734;28;20413;-68
2023/04/09 11:17:57;;;;;;;7.95;7.25;;;19.20;39.00;;;;;;5052718;28;20413;-68
2023/04/09 11:20:25;;;;;;;6.25;5.75;;;19.50;38.20;;;;;;5038578;28;20513;-68
2023/04/09 11:22:53;;;;;;;6.75;6.25;;;19.50;36.80;;;;;;5048145;28;20523;-68
2023/04/09 11:25:21;;;;;;;6.43;5.90;;;19.20;36.70;;;;;;5046454;28;20441;-68
2023/04/09 11:27:49;;;;;;;7.95;7.25;;;19.00;36.70;;;;;;5045711;28;20436;-68
2023/04/09 11:30:16;;;;;;;7.43;6.82;;;19.00;37.40;;;;;;5044869;28;20551;-68
2023/04/09 11:32:43;;;;;;;7.10;6.50;;;18.90;38.70;;;;;;5047319;28;20443;-68
2023/04/09 11:35:16;;;;;;;7.40;6.80;;;18.70;38.30;;;;;;5048929;28;20428;-69
2023/04/09 11:37:44;;;;;;;7.05;6.55;;;18.40;38.90;;;;;;5047824;28;20780;-69
2023/04/09 11:40:16;;;;;;;6.85;6.35;;;18.50;39.50;;;;;;5048594;28;20417;-68
2023/04/09 11:42:43;;;;;;;6.43;5.93;;;18.70;38.80;;;;;;5047863;28;20418;-67
2023/04/09 11:45:11;;;;;;;6.50;6.00;;;19.00;38.30;;;;;;5048227;28;20428;-69
2023/04/09 11:47:40;;;;;;;6.55;6.05;;;18.90;37.50;;;;;;5048265;28;20440;-68
2023/04/09 11:50:08;;;;;;;6.78;6.28;;;18.90;38.00;;;;;;5050281;28;20432;-68
2023/04/09 11:52:37;;;;;;;6.40;5.90;;;19.20;38.60;;;;;;5046088;28;20429;-67
2023/04/09 11:55:04;;;;;;;7.55;6.95;;;19.40;37.80;;;;;;5048498;28;20593;-67
2023/04/09 11:57:40;;;;;;;6.60;6.10;;;19.10;37.70;;;;;;5049084;28;20437;-68
2023/04/09 12:00:09;;;;;;;6.93;6.40;;;19.10;38.20;;;;;;5048644;28;20431;-67
2023/04/09 12:02:39;;;;;;;7.40;6.80;;;19.00;37.80;;;;;;5049447;28;20466;-68
2023/04/09 12:05:07;;;;;;;7.60;7.00;;;19.00;37.80;;;;;;5048360;28;20448;-67
2023/04/09 12:07:36;;;;;;;6.40;5.90;;;18.40;38.00;;;;;;5046963;28;20513;-67
2023/04/09 12:10:05;;;;;;;7.13;6.63;;;18.20;39.40;;;;;;5049201;28;20475;-68
2023/04/09 12:12:31;;;;;;;6.60;6.10;;;18.40;39.30;;;;;;5051541;28;20425;-68
2023/04/09 12:14:58;;;;;;;6.43;5.93;;;18.80;38.40;;;;;;5048538;28;20424;-67
2023/04/09 12:17:25;;;;;;;5.50;5.10;;;19.20;37.80;;;;;;5047217;28;20428;-67
2023/04/09 12:19:52;;;;;;;6.78;6.18;;;19.30;36.80;;;;;;5046914;28;20421;-68
2023/04/09 12:22:19;;;;;;;6.97;6.47;;;19.00;37.10;;;;;;5041360;28;20429;-68
2023/04/09 12:24:47;;;;;;;7.47;6.88;;;18.50;38.50;;;;;;5046506;28;20444;-68
2023/04/09 12:27:14;;;;;;;6.45;5.95;;;18.00;38.60;;;;;;5045846;28;20440;-68
2023/04/09 12:29:41;;;;;;;6.13;5.63;;;17.70;39.80;;;;;;5047166;28;20423;-68
2023/04/09 12:32:08;;;;;;;6.15;5.65;;;18.00;39.50;;;;;;5047396;28;20435;-67
2023/04/09 12:34:34;;;;;;;5.97;5.57;;;18.00;38.90;;;;;;5047209;28;20668;-68
2023/04/09 12:37:01;;;;;;;5.90;5.40;;;17.80;37.70;;;;;;5045519;28;20441;-68
2023/04/09 12:39:28;;;;;;;5.60;5.20;;;17.40;38.90;;;;;;5046791;28;20420;-68
2023/04/09 12:41:56;;;;;;;5.75;5.35;;;17.10;40.10;;;;;;5045818;28;20883;-68
2023/04/09 12:44:23;;;;;;;6.00;5.50;;;17.10;40.10;;;;;;5045721;28;20440;-68